sensor_id;sensor_type;location;lat;lon;timestamp;noise_LAeq;noise_LA_min;noise_LA_max;noise_LA01;noise_LA95
59284;Laerm;45056;47.602;9.886;2023-03-26T00:01:40;44.95;35.66;59.51;;
59284;Laerm;45056;47.602;9.886;2023-03-26T00:04:12;41.43;35.94;53.69;;
59284;Laerm;45056;47.602;9.886;2023-03-26T00:06:40;44.34;37.12;58.87;;
59284;Laerm;45056;47.602;9.886;2023-03-26T00:09:10;39.19;35.31;43.77;;
59284;Laerm;45056;47.602;9.886;2023-03-26T00:11:40;41.67;35.66;55.09;;
59284;Laerm;45056;47.602;9.886;2023-03-26T00:14:08;43.55;36.69;56.25;;
59284;Laerm;45056;47.602;9.886;2023-03-26T00:16:40;41.87;36.91;53.48;;
59284;Laerm;45056;47.602;9.886;2023-03-26T00:19:09;40.72;36.20;45.14;;
59284;Laerm;45056;47.602;9.886;2023-03-26T00:21:37;43.65;34.69;63.34;;
59284;Laerm;45056;47.602;9.886;2023-03-26T00:24:08;39.70;35.36;50.26;;
59284;Laerm;45056;47.602;9.886;2023-03-26T00:26:41;42.85;35.66;57.66;;
59284;Laerm;45056;47.602;9.886;2023-03-26T00:29:09;44.92;35.66;61.61;;
59284;Laerm;45056;47.602;9.886;2023-03-26T00:31:37;41.47;35.36;54.40;;
59284;Laerm;45056;47.602;9.886;2023-03-26T00:34:08;39.99;35.66;51.89;;
59284;Laerm;45056;47.602;9.886;2023-03-26T00:36:36;40.67;35.36;56.59;;
59284;Laerm;45056;47.602;9.886;2023-03-26T00:39:04;39.42;34.69;46.93;;
59284;Laerm;45056;47.602;9.886;2023-03-26T00:41:32;42.95;35.04;57.92;;
59284;Laerm;45056;47.602;9.886;2023-03-26T00:44:03;39.63;35.94;49.38;;
59284;Laerm;45056;47.602;9.886;2023-03-26T00:46:31;41.20;35.66;53.57;;
59284;Laerm;45056;47.602;9.886;2023-03-26T00:48:59;39.40;35.36;50.06;;
59284;Laerm;45056;47.602;9.886;2023-03-26T00:51:31;41.70;35.94;60.08;;
59284;Laerm;45056;47.602;9.886;2023-03-26T00:54:00;42.32;35.94;54.94;;
59284;Laerm;45056;47.602;9.886;2023-03-26T00:56:28;40.45;35.66;46.30;;
59284;Laerm;45056;47.602;9.886;2023-03-26T00:58:57;40.54;36.91;45.20;;
59284;Laerm;45056;47.602;9.886;2023-03-26T01:01:27;44.38;36.45;59.23;;
59284;Laerm;45056;47.602;9.886;2023-03-26T01:04:26;41.72;35.66;56.92;;
59284;Laerm;45056;47.602;9.886;2023-03-26T01:07:02;42.47;35.04;60.70;;
59284;Laerm;45056;47.602;9.886;2023-03-26T01:09:36;42.52;35.36;57.17;;
59284;Laerm;45056;47.602;9.886;2023-03-26T01:12:13;43.00;36.69;57.82;;
59284;Laerm;45056;47.602;9.886;2023-03-26T01:14:44;43.07;35.66;58.77;;
59284;Laerm;45056;47.602;9.886;2023-03-26T01:17:13;42.58;34.69;59.04;;
59284;Laerm;45056;47.602;9.886;2023-03-26T01:19:50;40.55;35.66;55.33;;
59284;Laerm;45056;47.602;9.886;2023-03-26T01:22:24;42.96;36.20;55.59;;
59284;Laerm;45056;47.602;9.886;2023-03-26T01:24:54;40.21;35.94;45.60;;
59284;Laerm;45056;47.602;9.886;2023-03-26T01:27:33;42.07;35.66;54.77;;
59284;Laerm;45056;47.602;9.886;2023-03-26T01:30:18;45.00;35.31;59.60;;
59284;Laerm;45056;47.602;9.886;2023-03-26T01:33:02;44.38;36.69;59.84;;
59284;Laerm;45056;47.602;9.886;2023-03-26T01:35:51;40.99;35.36;55.06;;
59284;Laerm;45056;47.602;9.886;2023-03-26T01:38:31;40.75;35.04;55.60;;
59284;Laerm;45056;47.602;9.886;2023-03-26T01:41:13;39.54;35.36;57.53;;
59284;Laerm;45056;47.602;9.886;2023-03-26T01:43:53;41.34;36.45;55.30;;
59284;Laerm;45056;47.602;9.886;2023-03-26T01:46:26;43.15;36.56;55.99;;
59284;Laerm;45056;47.602;9.886;2023-03-26T01:48:54;39.33;35.04;42.41;;
59284;Laerm;45056;47.602;9.886;2023-03-26T01:51:28;40.69;35.04;54.52;;
59284;Laerm;45056;47.602;9.886;2023-03-26T01:53:57;38.88;34.69;42.41;;
59284;Laerm;45056;47.602;9.886;2023-03-26T01:56:41;39.81;34.31;43.93;;
59284;Laerm;45056;47.602;9.886;2023-03-26T01:59:43;38.50;34.69;45.75;;
59284;Laerm;45056;47.602;9.886;2023-03-26T02:02:25;44.77;35.36;59.38;;
59284;Laerm;45056;47.602;9.886;2023-03-26T02:05:10;43.63;35.94;55.92;;
59284;Laerm;45056;47.602;9.886;2023-03-26T02:07:47;38.24;35.04;42.35;;
59284;Laerm;45056;47.602;9.886;2023-03-26T02:10:25;38.15;35.04;40.45;;
59284;Laerm;45056;47.602;9.886;2023-03-26T02:12:58;41.23;33.90;58.19;;
59284;Laerm;45056;47.602;9.886;2023-03-26T02:15:27;40.29;34.69;57.99;;
59284;Laerm;45056;47.602;9.886;2023-03-26T02:17:55;39.33;35.36;45.14;;
59284;Laerm;45056;47.602;9.886;2023-03-26T02:20:25;40.80;35.04;54.58;;
59284;Laerm;45056;47.602;9.886;2023-03-26T02:22:56;38.78;34.69;43.68;;
59284;Laerm;45056;47.602;9.886;2023-03-26T02:25:26;39.88;35.36;45.57;;
59284;Laerm;45056;47.602;9.886;2023-03-26T02:27:55;38.97;35.04;44.65;;
59284;Laerm;45056;47.602;9.886;2023-03-26T02:30:24;41.16;35.36;55.57;;
59284;Laerm;45056;47.602;9.886;2023-03-26T02:32:53;39.55;34.31;42.47;;
59284;Laerm;45056;47.602;9.886;2023-03-26T02:35:23;38.63;34.31;49.39;;
59284;Laerm;45056;47.602;9.886;2023-03-26T02:37:51;42.83;35.36;56.94;;
59284;Laerm;45056;47.602;9.886;2023-03-26T02:40:19;42.73;35.36;56.82;;
59284;Laerm;45056;47.602;9.886;2023-03-26T02:42:48;40.97;34.69;55.88;;
59284;Laerm;45056;47.602;9.886;2023-03-26T02:45:18;41.13;34.69;56.68;;
59284;Laerm;45056;47.602;9.886;2023-03-26T02:47:46;38.34;34.69;42.98;;
59284;Laerm;45056;47.602;9.886;2023-03-26T02:50:14;40.93;34.69;55.42;;
59284;Laerm;45056;47.602;9.886;2023-03-26T02:52:42;38.40;35.04;41.22;;
59284;Laerm;45056;47.602;9.886;2023-03-26T02:55:11;43.37;35.04;58.18;;
59284;Laerm;45056;47.602;9.886;2023-03-26T02:57:39;40.22;34.69;53.26;;
59284;Laerm;45056;47.602;9.886;2023-03-26T03:00:08;44.93;35.04;60.47;;
59284;Laerm;45056;47.602;9.886;2023-03-26T03:02:40;42.81;35.36;60.50;;
59284;Laerm;45056;47.602;9.886;2023-03-26T03:05:09;41.53;33.90;56.19;;
59284;Laerm;45056;47.602;9.886;2023-03-26T03:07:38;38.87;34.69;42.82;;
59284;Laerm;45056;47.602;9.886;2023-03-26T03:10:07;39.80;35.04;42.53;;
59284;Laerm;45056;47.602;9.886;2023-03-26T03:12:36;40.54;35.36;46.23;;
59284;Laerm;45056;47.602;9.886;2023-03-26T03:15:05;40.43;35.36;53.90;;
59284;Laerm;45056;47.602;9.886;2023-03-26T03:17:33;40.04;35.66;43.09;;
59284;Laerm;45056;47.602;9.886;2023-03-26T03:20:04;41.72;36.20;56.30;;
59284;Laerm;45056;47.602;9.886;2023-03-26T03:22:35;43.64;34.31;57.50;;
59284;Laerm;45056;47.602;9.886;2023-03-26T03:25:05;38.66;34.31;46.07;;
59284;Laerm;45056;47.602;9.886;2023-03-26T03:27:35;37.99;33.44;40.62;;
59284;Laerm;45056;47.602;9.886;2023-03-26T03:30:06;40.87;34.69;54.62;;
59284;Laerm;45056;47.602;9.886;2023-03-26T03:32:35;42.37;36.45;57.62;;
59284;Laerm;45056;47.602;9.886;2023-03-26T03:35:06;38.42;33.90;42.47;;
59284;Laerm;45056;47.602;9.886;2023-03-26T03:37:34;38.51;34.31;42.76;;
59284;Laerm;45056;47.602;9.886;2023-03-26T03:40:02;38.71;34.31;43.24;;
59284;Laerm;45056;47.602;9.886;2023-03-26T03:42:33;38.52;34.31;41.30;;
59284;Laerm;45056;47.602;9.886;2023-03-26T03:45:01;44.22;35.36;57.96;;
59284;Laerm;45056;47.602;9.886;2023-03-26T03:47:29;44.00;34.31;60.99;;
59284;Laerm;45056;47.602;9.886;2023-03-26T03:49:57;39.43;34.31;42.71;;
59284;Laerm;45056;47.602;9.886;2023-03-26T03:52:27;38.18;33.90;42.53;;
59284;Laerm;45056;47.602;9.886;2023-03-26T03:54:56;38.30;34.69;41.89;;
59284;Laerm;45056;47.602;9.886;2023-03-26T03:57:26;39.84;34.69;48.05;;
59284;Laerm;45056;47.602;9.886;2023-03-26T03:59:54;40.31;35.66;54.35;;
59284;Laerm;45056;47.602;9.886;2023-03-26T04:02:25;45.06;35.04;57.46;;
59284;Laerm;45056;47.602;9.886;2023-03-26T04:04:56;40.01;34.69;47.32;;
59284;Laerm;45056;47.602;9.886;2023-03-26T04:07:28;40.72;35.04;54.69;;
59284;Laerm;45056;47.602;9.886;2023-03-26T04:09:58;38.42;33.90;41.61;;
59284;Laerm;45056;47.602;9.886;2023-03-26T04:12:30;41.82;35.36;54.67;;
59284;Laerm;45056;47.602;9.886;2023-03-26T04:14:59;43.12;34.31;61.32;;
59284;Laerm;45056;47.602;9.886;2023-03-26T04:17:27;39.59;33.90;53.27;;
59284;Laerm;45056;47.602;9.886;2023-03-26T04:19:56;38.77;33.90;41.89;;
59284;Laerm;45056;47.602;9.886;2023-03-26T04:22:33;40.98;36.20;52.51;;
59284;Laerm;45056;47.602;9.886;2023-03-26T04:25:02;39.82;35.04;42.98;;
59284;Laerm;45056;47.602;9.886;2023-03-26T04:27:33;40.39;34.69;55.30;;
59284;Laerm;45056;47.602;9.886;2023-03-26T04:30:05;41.67;34.69;56.46;;
59284;Laerm;45056;47.602;9.886;2023-03-26T04:32:36;40.05;35.04;55.05;;
59284;Laerm;45056;47.602;9.886;2023-03-26T04:35:07;40.32;35.66;44.11;;
59284;Laerm;45056;47.602;9.886;2023-03-26T04:37:42;40.84;35.36;55.47;;
59284;Laerm;45056;47.602;9.886;2023-03-26T04:40:16;42.60;36.20;54.31;;
59284;Laerm;45056;47.602;9.886;2023-03-26T04:42:45;42.72;35.66;55.81;;
59284;Laerm;45056;47.602;9.886;2023-03-26T04:45:16;43.94;35.66;57.12;;
59284;Laerm;45056;47.602;9.886;2023-03-26T04:47:48;42.39;35.36;56.78;;
59284;Laerm;45056;47.602;9.886;2023-03-26T04:50:17;42.74;35.94;55.67;;
59284;Laerm;45056;47.602;9.886;2023-03-26T04:52:46;44.17;35.94;57.37;;
59284;Laerm;45056;47.602;9.886;2023-03-26T04:55:23;42.74;35.04;58.90;;
59284;Laerm;45056;47.602;9.886;2023-03-26T04:57:56;42.98;35.04;61.92;;
59284;Laerm;45056;47.602;9.886;2023-03-26T05:00:29;46.28;35.04;59.00;;
59284;Laerm;45056;47.602;9.886;2023-03-26T05:02:57;38.58;34.69;42.65;;
59284;Laerm;45056;47.602;9.886;2023-03-26T05:05:28;44.35;34.69;60.79;;
59284;Laerm;45056;47.602;9.886;2023-03-26T05:07:58;42.33;35.66;57.94;;
59284;Laerm;45056;47.602;9.886;2023-03-26T05:10:26;41.61;35.94;56.66;;
59284;Laerm;45056;47.602;9.886;2023-03-26T05:12:54;39.75;35.36;43.68;;
59284;Laerm;45056;47.602;9.886;2023-03-26T05:15:23;45.54;37.32;61.63;;
59284;Laerm;45056;47.602;9.886;2023-03-26T05:17:51;44.30;35.94;60.20;;
59284;Laerm;45056;47.602;9.886;2023-03-26T05:20:24;43.77;36.45;58.42;;
59284;Laerm;45056;47.602;9.886;2023-03-26T05:22:53;42.06;36.69;52.62;;
59284;Laerm;45056;47.602;9.886;2023-03-26T05:25:22;44.89;36.45;58.84;;
59284;Laerm;45056;47.602;9.886;2023-03-26T05:27:51;47.12;35.04;69.59;;
59284;Laerm;45056;47.602;9.886;2023-03-26T05:30:20;54.53;36.34;74.01;;
59284;Laerm;45056;47.602;9.886;2023-03-26T05:32:52;51.73;36.45;70.97;;
59284;Laerm;45056;47.602;9.886;2023-03-26T05:35:22;44.87;36.91;62.21;;
59284;Laerm;45056;47.602;9.886;2023-03-26T05:37:50;41.84;37.52;50.45;;
59284;Laerm;45056;47.602;9.886;2023-03-26T05:40:19;41.58;36.20;52.88;;
59284;Laerm;45056;47.602;9.886;2023-03-26T05:42:49;44.33;37.32;60.67;;
59284;Laerm;45056;47.602;9.886;2023-03-26T05:45:17;41.76;34.69;56.87;;
59284;Laerm;45056;47.602;9.886;2023-03-26T05:47:45;45.13;36.91;59.14;;
59284;Laerm;45056;47.602;9.886;2023-03-26T05:50:15;42.71;37.12;58.21;;
59284;Laerm;45056;47.602;9.886;2023-03-26T05:52:43;41.20;36.91;48.08;;
59284;Laerm;45056;47.602;9.886;2023-03-26T05:55:12;45.20;37.32;63.84;;
59284;Laerm;45056;47.602;9.886;2023-03-26T05:57:40;45.93;36.69;60.77;;
59284;Laerm;45056;47.602;9.886;2023-03-26T06:00:11;46.04;35.36;56.59;;
59284;Laerm;45056;47.602;9.886;2023-03-26T06:02:40;46.27;35.04;57.70;;
59284;Laerm;45056;47.602;9.886;2023-03-26T06:05:08;43.44;35.36;56.21;;
59284;Laerm;45056;47.602;9.886;2023-03-26T06:07:38;44.90;35.36;56.56;;
59284;Laerm;45056;47.602;9.886;2023-03-26T06:10:07;46.89;36.91;63.36;;
59284;Laerm;45056;47.602;9.886;2023-03-26T06:12:36;47.10;35.36;69.75;;
59284;Laerm;45056;47.602;9.886;2023-03-26T06:15:06;41.80;34.69;54.04;;
59284;Laerm;45056;47.602;9.886;2023-03-26T06:17:36;42.70;37.53;50.97;;
59284;Laerm;45056;47.602;9.886;2023-03-26T06:20:06;42.02;36.20;55.13;;
59284;Laerm;45056;47.602;9.886;2023-03-26T06:22:34;41.62;37.32;45.94;;
59284;Laerm;45056;47.602;9.886;2023-03-26T06:25:03;42.69;35.94;57.54;;
59284;Laerm;45056;47.602;9.886;2023-03-26T06:27:31;52.80;36.45;71.93;;
59284;Laerm;45056;47.602;9.886;2023-03-26T06:30:00;50.13;36.45;69.64;;
59284;Laerm;45056;47.602;9.886;2023-03-26T06:32:28;42.89;33.90;58.93;;
59284;Laerm;45056;47.602;9.886;2023-03-26T06:34:57;44.11;37.12;56.44;;
59284;Laerm;45056;47.602;9.886;2023-03-26T06:37:26;45.42;36.91;62.92;;
59284;Laerm;45056;47.602;9.886;2023-03-26T06:39:54;54.00;36.20;70.98;;
59284;Laerm;45056;47.602;9.886;2023-03-26T06:42:22;47.93;37.52;63.86;;
59284;Laerm;45056;47.602;9.886;2023-03-26T06:44:50;48.17;37.35;65.98;;
59284;Laerm;45056;47.602;9.886;2023-03-26T06:47:18;44.37;36.91;56.61;;
59284;Laerm;45056;47.602;9.886;2023-03-26T06:49:46;43.55;37.52;56.12;;
59284;Laerm;45056;47.602;9.886;2023-03-26T06:52:16;44.31;38.05;56.26;;
59284;Laerm;45056;47.602;9.886;2023-03-26T06:54:44;45.35;37.12;58.32;;
59284;Laerm;45056;47.602;9.886;2023-03-26T06:57:12;49.01;37.12;59.88;;
59284;Laerm;45056;47.602;9.886;2023-03-26T06:59:40;48.18;36.91;60.41;;
59284;Laerm;45056;47.602;9.886;2023-03-26T07:02:09;49.69;38.81;60.12;;
59284;Laerm;45056;47.602;9.886;2023-03-26T07:04:38;46.45;37.52;58.54;;
59284;Laerm;45056;47.602;9.886;2023-03-26T07:07:06;45.12;36.20;56.86;;
59284;Laerm;45056;47.602;9.886;2023-03-26T07:09:36;44.29;38.37;58.13;;
59284;Laerm;45056;47.602;9.886;2023-03-26T07:12:05;46.12;38.81;57.63;;
59284;Laerm;45056;47.602;9.886;2023-03-26T07:14:33;48.57;40.62;60.50;;
59284;Laerm;45056;47.602;9.886;2023-03-26T07:17:04;45.34;40.03;58.20;;
59284;Laerm;45056;47.602;9.886;2023-03-26T07:19:32;44.77;38.95;60.73;;
59284;Laerm;45056;47.602;9.886;2023-03-26T07:22:01;46.57;38.95;59.63;;
59284;Laerm;45056;47.602;9.886;2023-03-26T07:24:30;50.52;39.21;61.46;;
59284;Laerm;45056;47.602;9.886;2023-03-26T07:27:09;47.41;39.08;59.94;;
59284;Laerm;45056;47.602;9.886;2023-03-26T07:29:48;48.19;39.21;63.19;;
59284;Laerm;45056;47.602;9.886;2023-03-26T07:32:32;51.80;40.13;63.85;;
59284;Laerm;45056;47.602;9.886;2023-03-26T07:35:13;49.72;39.81;61.14;;
59284;Laerm;45056;47.602;9.886;2023-03-26T07:38:01;45.61;38.52;58.49;;
59284;Laerm;45056;47.602;9.886;2023-03-26T07:40:52;46.71;39.08;60.18;;
59284;Laerm;45056;47.602;9.886;2023-03-26T07:43:50;48.53;38.21;62.56;;
59284;Laerm;45056;47.602;9.886;2023-03-26T07:46:29;47.86;37.17;64.72;;
59284;Laerm;45056;47.602;9.886;2023-03-26T07:49:00;45.82;38.95;60.54;;
59284;Laerm;45056;47.602;9.886;2023-03-26T07:51:32;46.76;38.05;61.74;;
59284;Laerm;45056;47.602;9.886;2023-03-26T07:54:01;48.16;39.08;65.49;;
59284;Laerm;45056;47.602;9.886;2023-03-26T07:56:37;49.15;40.33;61.73;;
59284;Laerm;45056;47.602;9.886;2023-03-26T07:59:23;51.33;41.06;63.48;;
59284;Laerm;45056;47.602;9.886;2023-03-26T08:02:35;52.93;42.41;64.07;;
59284;Laerm;45056;47.602;9.886;2023-03-26T08:05:23;51.12;41.61;63.30;;
59284;Laerm;45056;47.602;9.886;2023-03-26T08:08:08;48.95;42.76;63.20;;
59284;Laerm;45056;47.602;9.886;2023-03-26T08:11:05;48.89;42.29;61.86;;
59284;Laerm;45056;47.602;9.886;2023-03-26T08:13:58;50.97;40.98;63.42;;
59284;Laerm;45056;47.602;9.886;2023-03-26T08:16:40;50.68;41.61;66.74;;
59284;Laerm;45056;47.602;9.886;2023-03-26T08:19:37;48.62;41.53;61.79;;
59284;Laerm;45056;47.602;9.886;2023-03-26T08:22:16;49.92;41.22;60.87;;
59284;Laerm;45056;47.602;9.886;2023-03-26T08:25:08;53.08;42.16;75.29;;
59284;Laerm;45056;47.602;9.886;2023-03-26T08:27:57;49.47;42.82;61.63;;
59284;Laerm;45056;47.602;9.886;2023-03-26T08:30:30;50.01;41.14;61.52;;
59284;Laerm;45056;47.602;9.886;2023-03-26T08:33:12;49.00;41.22;63.04;;
59284;Laerm;45056;47.602;9.886;2023-03-26T08:35:43;49.38;40.89;61.04;;
59284;Laerm;45056;47.602;9.886;2023-03-26T08:38:13;47.49;40.53;61.06;;
59284;Laerm;45056;47.602;9.886;2023-03-26T08:41:29;51.37;41.30;63.34;;
59284;Laerm;45056;47.602;9.886;2023-03-26T08:44:53;53.52;43.14;64.29;;
59284;Laerm;45056;47.602;9.886;2023-03-26T08:55:19;49.26;40.53;63.68;;
59284;Laerm;45056;47.602;9.886;2023-03-26T08:58:22;49.52;40.03;64.03;;
59284;Laerm;45056;47.602;9.886;2023-03-26T09:05:22;51.64;40.53;66.43;;
59284;Laerm;45056;47.602;9.886;2023-03-26T09:22:52;46.68;40.53;65.77;;
59284;Laerm;45056;47.602;9.886;2023-03-26T09:26:03;47.70;40.23;60.91;;
59284;Laerm;45056;47.602;9.886;2023-03-26T09:32:57;47.77;41.61;60.44;;
59284;Laerm;45056;47.602;9.886;2023-03-26T09:35:53;48.40;41.14;60.23;;
59284;Laerm;45056;47.602;9.886;2023-03-26T09:38:41;51.50;42.65;65.54;;
59284;Laerm;45056;47.602;9.886;2023-03-26T09:41:16;50.41;40.80;61.78;;
59284;Laerm;45056;47.602;9.886;2023-03-26T09:44:26;48.90;40.33;64.19;;
59284;Laerm;45056;47.602;9.886;2023-03-26T09:47:35;49.32;40.13;61.53;;
59284;Laerm;45056;47.602;9.886;2023-03-26T09:50:36;47.04;40.80;58.09;;
59284;Laerm;45056;47.602;9.886;2023-03-26T09:53:50;49.40;40.33;61.58;;
59284;Laerm;45056;47.602;9.886;2023-03-26T09:56:33;45.59;39.34;60.17;;
59284;Laerm;45056;47.602;9.886;2023-03-26T09:59:33;49.22;42.03;63.81;;
59284;Laerm;45056;47.602;9.886;2023-03-26T10:02:33;50.78;41.82;62.28;;
59284;Laerm;45056;47.602;9.886;2023-03-26T10:05:43;61.71;41.06;75.20;;
59284;Laerm;45056;47.602;9.886;2023-03-26T10:08:51;49.64;39.70;66.76;;
59284;Laerm;45056;47.602;9.886;2023-03-26T10:11:48;48.05;41.53;65.14;;
59284;Laerm;45056;47.602;9.886;2023-03-26T10:14:33;49.06;41.61;62.39;;
59284;Laerm;45056;47.602;9.886;2023-03-26T10:17:29;47.16;39.81;59.13;;
59284;Laerm;45056;47.602;9.886;2023-03-26T10:20:32;48.49;40.33;61.38;;
59284;Laerm;45056;47.602;9.886;2023-03-26T10:23:26;45.55;40.80;61.25;;
59284;Laerm;45056;47.602;9.886;2023-03-26T10:26:19;50.90;42.65;64.01;;
59284;Laerm;45056;47.602;9.886;2023-03-26T10:29:24;51.67;41.96;64.70;;
59284;Laerm;45056;47.602;9.886;2023-03-26T10:32:16;51.13;42.59;66.22;;
59284;Laerm;45056;47.602;9.886;2023-03-26T10:35:11;48.78;41.68;62.22;;
59284;Laerm;45056;47.602;9.886;2023-03-26T10:38:14;47.33;39.81;59.64;;
59284;Laerm;45056;47.602;9.886;2023-03-26T10:40:58;47.57;40.23;63.73;;
59284;Laerm;45056;47.602;9.886;2023-03-26T10:43:58;48.43;40.43;60.83;;
59284;Laerm;45056;47.602;9.886;2023-03-26T10:47:18;48.33;40.89;59.72;;
59284;Laerm;45056;47.602;9.886;2023-03-26T10:50:19;50.04;39.70;63.32;;
59284;Laerm;45056;47.602;9.886;2023-03-26T10:52:57;46.53;40.33;59.14;;
59284;Laerm;45056;47.602;9.886;2023-03-26T10:55:36;46.02;39.92;59.90;;
59284;Laerm;45056;47.602;9.886;2023-03-26T10:58:17;48.80;40.53;62.05;;
59284;Laerm;45056;47.602;9.886;2023-03-26T11:00:55;48.07;40.33;61.33;;
59284;Laerm;45056;47.602;9.886;2023-03-26T11:03:49;48.23;40.89;60.97;;
59284;Laerm;45056;47.602;9.886;2023-03-26T11:06:42;50.60;40.62;63.15;;
59284;Laerm;45056;47.602;9.886;2023-03-26T11:09:29;48.50;39.34;60.88;;
59284;Laerm;45056;47.602;9.886;2023-03-26T11:12:15;46.34;39.46;59.25;;
59284;Laerm;45056;47.602;9.886;2023-03-26T11:15:00;47.03;40.03;61.03;;
59284;Laerm;45056;47.602;9.886;2023-03-26T11:17:45;49.37;39.58;62.94;;
59284;Laerm;45056;47.602;9.886;2023-03-26T11:20:23;47.96;40.62;60.66;;
59284;Laerm;45056;47.602;9.886;2023-03-26T11:23:22;47.72;39.34;59.51;;
59284;Laerm;45056;47.602;9.886;2023-03-26T11:26:15;47.37;40.03;58.79;;
59284;Laerm;45056;47.602;9.886;2023-03-26T11:29:17;47.35;39.58;59.68;;
59284;Laerm;45056;47.602;9.886;2023-03-26T11:32:01;47.16;39.81;58.01;;
59284;Laerm;45056;47.602;9.886;2023-03-26T11:34:38;46.07;39.81;57.19;;
59284;Laerm;45056;47.602;9.886;2023-03-26T11:37:19;47.03;40.53;58.89;;
59284;Laerm;45056;47.602;9.886;2023-03-26T11:39:56;46.65;39.46;56.40;;
59284;Laerm;45056;47.602;9.886;2023-03-26T11:42:27;48.17;40.62;59.24;;
59284;Laerm;45056;47.602;9.886;2023-03-26T11:45:02;44.61;39.34;55.23;;
59284;Laerm;45056;47.602;9.886;2023-03-26T11:47:39;45.63;38.05;61.26;;
59284;Laerm;45056;47.602;9.886;2023-03-26T11:50:20;46.86;41.30;57.77;;
59284;Laerm;45056;47.602;9.886;2023-03-26T11:52:49;47.82;38.37;59.91;;
59284;Laerm;45056;47.602;9.886;2023-03-26T11:55:17;46.52;38.52;57.30;;
59284;Laerm;45056;47.602;9.886;2023-03-26T11:57:55;47.38;40.80;59.55;;
59284;Laerm;45056;47.602;9.886;2023-03-26T12:00:28;48.71;40.03;59.72;;
59284;Laerm;45056;47.602;9.886;2023-03-26T12:02:58;50.84;40.43;70.30;;
59284;Laerm;45056;47.602;9.886;2023-03-26T12:05:27;48.96;39.70;61.44;;
59284;Laerm;45056;47.602;9.886;2023-03-26T12:08:02;48.70;38.95;61.42;;
59284;Laerm;45056;47.602;9.886;2023-03-26T12:10:36;46.82;39.70;56.36;;
59284;Laerm;45056;47.602;9.886;2023-03-26T12:13:28;48.67;40.98;61.55;;
59284;Laerm;45056;47.602;9.886;2023-03-26T12:16:10;48.10;38.81;58.65;;
59284;Laerm;45056;47.602;9.886;2023-03-26T12:18:41;47.24;40.08;59.15;;
59284;Laerm;45056;47.602;9.886;2023-03-26T12:21:13;47.61;38.95;59.07;;
59284;Laerm;45056;47.602;9.886;2023-03-26T12:23:54;46.77;39.92;58.67;;
59284;Laerm;45056;47.602;9.886;2023-03-26T12:26:36;46.34;41.53;55.75;;
59284;Laerm;45056;47.602;9.886;2023-03-26T12:29:11;48.20;40.23;59.65;;
59284;Laerm;45056;47.602;9.886;2023-03-26T12:31:50;48.51;40.43;58.38;;
59284;Laerm;45056;47.602;9.886;2023-03-26T12:34:22;47.24;40.62;60.29;;
59284;Laerm;45056;47.602;9.886;2023-03-26T12:36:54;45.58;39.34;58.96;;
59284;Laerm;45056;47.602;9.886;2023-03-26T12:39:36;47.50;40.71;57.16;;
59284;Laerm;45056;47.602;9.886;2023-03-26T12:42:25;45.88;39.21;57.34;;
59284;Laerm;45056;47.602;9.886;2023-03-26T12:44:57;45.81;38.81;58.77;;
59284;Laerm;45056;47.602;9.886;2023-03-26T12:47:31;48.00;37.88;59.20;;
59284;Laerm;45056;47.602;9.886;2023-03-26T12:50:00;45.11;39.08;57.97;;
59284;Laerm;45056;47.602;9.886;2023-03-26T12:53:16;47.34;40.13;57.91;;
59284;Laerm;45056;47.602;9.886;2023-03-26T12:56:00;46.83;39.92;60.83;;
59284;Laerm;45056;47.602;9.886;2023-03-26T12:59:00;46.38;37.88;57.17;;
59284;Laerm;45056;47.602;9.886;2023-03-26T13:01:52;46.37;37.70;59.33;;
59284;Laerm;45056;47.602;9.886;2023-03-26T13:04:52;47.08;39.58;60.53;;
59284;Laerm;45056;47.602;9.886;2023-03-26T13:07:50;45.66;39.23;56.02;;
59284;Laerm;45056;47.602;9.886;2023-03-26T13:10:50;48.17;39.21;78.03;;
59284;Laerm;45056;47.602;9.886;2023-03-26T13:14:04;44.56;38.05;56.26;;
59284;Laerm;45056;47.602;9.886;2023-03-26T13:16:46;46.53;39.21;59.35;;
59284;Laerm;45056;47.602;9.886;2023-03-26T13:19:25;44.34;39.23;58.22;;
59284;Laerm;45056;47.602;9.886;2023-03-26T13:22:19;45.57;38.67;58.07;;
59284;Laerm;45056;47.602;9.886;2023-03-26T13:25:06;46.57;39.58;56.35;;
59284;Laerm;45056;47.602;9.886;2023-03-26T13:27:58;44.89;38.37;57.89;;
59284;Laerm;45056;47.602;9.886;2023-03-26T13:30:36;47.41;40.62;58.10;;
59284;Laerm;45056;47.602;9.886;2023-03-26T13:33:37;45.12;39.70;56.30;;
59284;Laerm;45056;47.602;9.886;2023-03-26T13:36:13;46.01;39.92;55.58;;
59284;Laerm;45056;47.602;9.886;2023-03-26T13:39:08;45.93;39.08;58.65;;
59284;Laerm;45056;47.602;9.886;2023-03-26T13:42:01;44.14;38.95;55.36;;
59284;Laerm;45056;47.602;9.886;2023-03-26T13:44:51;47.59;40.23;58.39;;
59284;Laerm;45056;47.602;9.886;2023-03-26T13:47:32;46.41;39.34;58.04;;
59284;Laerm;45056;47.602;9.886;2023-03-26T13:50:15;46.48;40.13;56.18;;
59284;Laerm;45056;47.602;9.886;2023-03-26T13:52:53;46.64;41.68;57.70;;
59284;Laerm;45056;47.602;9.886;2023-03-26T13:55:32;48.49;41.30;59.66;;
59284;Laerm;45056;47.602;9.886;2023-03-26T13:58:15;46.37;43.09;56.71;;
59284;Laerm;45056;47.602;9.886;2023-03-26T14:00:57;53.43;46.55;64.63;;
59284;Laerm;45056;47.602;9.886;2023-03-26T14:03:47;54.46;47.34;66.88;;
59284;Laerm;45056;47.602;9.886;2023-03-26T14:06:34;52.92;48.02;62.37;;
59284;Laerm;45056;47.602;9.886;2023-03-26T14:09:18;50.92;45.60;60.29;;
59284;Laerm;45056;47.602;9.886;2023-03-26T14:12:17;52.30;45.72;66.17;;
59284;Laerm;45056;47.602;9.886;2023-03-26T14:14:57;51.30;44.15;65.45;;
59284;Laerm;45056;47.602;9.886;2023-03-26T14:17:36;51.56;44.07;63.68;;
59284;Laerm;45056;47.602;9.886;2023-03-26T14:21:05;49.59;40.23;64.06;;
59284;Laerm;45056;47.602;9.886;2023-03-26T14:24:16;48.76;42.03;61.54;;
59284;Laerm;45056;47.602;9.886;2023-03-26T14:27:20;48.58;40.62;60.11;;
59284;Laerm;45056;47.602;9.886;2023-03-26T14:33:30;45.95;40.13;60.99;;
59284;Laerm;45056;47.602;9.886;2023-03-26T14:36:17;46.21;39.21;64.65;;
59284;Laerm;45056;47.602;9.886;2023-03-26T14:39:25;49.04;40.03;61.26;;
59284;Laerm;45056;47.602;9.886;2023-03-26T14:42:07;52.68;40.53;68.14;;
59284;Laerm;45056;47.602;9.886;2023-03-26T14:45:28;58.16;42.03;79.10;;
59284;Laerm;45056;47.602;9.886;2023-03-26T14:54:31;46.92;39.34;59.18;;
59284;Laerm;45056;47.602;9.886;2023-03-26T14:58:02;46.30;39.81;59.53;;
59284;Laerm;45056;47.602;9.886;2023-03-26T15:01:20;48.70;40.80;59.55;;
59284;Laerm;45056;47.602;9.886;2023-03-26T15:04:33;46.26;39.70;60.55;;
59284;Laerm;45056;47.602;9.886;2023-03-26T15:07:59;48.96;40.98;64.03;;
59284;Laerm;45056;47.602;9.886;2023-03-26T15:11:21;48.08;40.33;61.18;;
59284;Laerm;45056;47.602;9.886;2023-03-26T15:17:52;46.21;38.52;57.88;;
59284;Laerm;45056;47.602;9.886;2023-03-26T15:21:06;48.12;39.58;59.06;;
59284;Laerm;45056;47.602;9.886;2023-03-26T15:27:37;44.92;38.81;56.35;;
59284;Laerm;45056;47.602;9.886;2023-03-26T15:31:07;47.64;40.89;58.99;;
59284;Laerm;45056;47.602;9.886;2023-03-26T15:37:44;49.27;38.74;62.76;;
59284;Laerm;45056;47.602;9.886;2023-03-26T15:40:46;47.17;40.03;59.33;;
59284;Laerm;45056;47.602;9.886;2023-03-26T15:43:19;47.49;39.08;62.22;;
59284;Laerm;45056;47.602;9.886;2023-03-26T15:46:20;49.55;37.70;64.74;;